Etusivu
METAR-TAF:

METAR-TAF

Lentoasemat :

Cognac, Ranska

Leveyspiiri: 45-40N, Pituuspiiri: 000-19W, korkeus merenpinnasta: 30 m

Tämänhetkinen sää

Tämä raportti tehtiin 24 minuuttia sitten, kello 20.00 UTC
Tuuli 6 kn lännestä/luoteesta
Lämpötila 18°C
Kosteus 94%
Ilmanpaine 1024 hPa
Näkyvyys 10 km tai enemmän
Muutamia pilviä 1300 ft:n korkeudessa
Pilvistä 3400 ft:n korkeudessa

METAR: LFBG 232000Z AUTO 30006KT 9999 FEW013 OVC034 18/17 Q1024

Aika: 22:24 (20:24 UTC)


TAF: puuttuu

Säähavainnot ja -ennusteet yli 4000 lentoasemalta (METAR- ja TAF-raportit).

Käytössä olevat sääasemat on merkitty karttaan keltaisilla ja punaisilla pisteillä.

Aseta hiiri pisteen päälle nähdäksesi sääaseman nimen.

Klikkaa sitten nähdäksesi säähavainnot ja -ennusteet.

Kartan vaihtaminen: klikkaa mustalla rastilla varustettuja vihreitä pisteitä, niin voit zoomata sisään; viivalla varustettua vihreää pistettä, niin voit zoomata ulos tai vihreitä nuolia, niin pääset viereisille kartoille.


METAR-TAF: